createdAt,value
2022-10-31T00:00:38.142Z,98841.00
2022-10-31T00:03:10.631Z,98838.00
2022-10-31T00:05:40.525Z,98833.00
2022-10-31T00:08:10.345Z,98840.00
2022-10-31T00:10:41.881Z,98843.00
2022-10-31T00:13:12.498Z,98832.00
2022-10-31T00:15:43.242Z,98836.00
2022-10-31T00:18:15.684Z,98836.00
2022-10-31T00:20:45.559Z,98840.00
2022-10-31T00:23:15.725Z,98841.00
2022-10-31T00:25:45.563Z,98838.00
2022-10-31T00:28:15.760Z,98837.00
2022-10-31T00:30:45.678Z,98834.00
2022-10-31T00:33:18.204Z,98836.00
2022-10-31T00:35:53.768Z,98837.00
2022-10-31T00:38:23.764Z,98837.00
2022-10-31T00:40:53.665Z,98835.00
2022-10-31T00:43:23.593Z,98831.00
2022-10-31T00:45:53.598Z,98821.00
2022-10-31T00:48:26.174Z,98833.00
2022-10-31T00:50:56.675Z,98831.00
2022-10-31T00:53:26.700Z,98829.00
2022-10-31T00:55:56.616Z,98832.00
2022-10-31T00:58:26.658Z,98833.00
2022-10-31T01:00:58.644Z,98825.00
2022-10-31T01:03:32.961Z,98824.00
2022-10-31T01:06:04.080Z,98838.00
2022-10-31T01:08:36.086Z,98840.00
2022-10-31T01:11:09.700Z,98832.00
2022-10-31T01:13:39.645Z,98840.00
2022-10-31T01:16:12.253Z,98838.00
2022-10-31T01:18:44.883Z,98828.00
2022-10-31T01:21:16.361Z,98824.00
2022-10-31T01:23:46.690Z,98826.00
2022-10-31T01:26:19.252Z,98827.00
2022-10-31T01:28:50.676Z,98823.00
2022-10-31T01:31:21.908Z,98822.00
2022-10-31T01:33:54.802Z,98830.00
2022-10-31T01:36:26.847Z,98820.00
2022-10-31T01:38:59.184Z,98812.00
2022-10-31T01:41:31.210Z,98817.00
2022-10-31T01:44:03.315Z,98813.00
2022-10-31T01:46:36.229Z,98812.00
2022-10-31T01:49:13.684Z,98818.00
2022-10-31T01:51:49.088Z,98813.00
2022-10-31T01:54:20.688Z,98823.00
2022-10-31T01:56:54.091Z,98823.00
2022-10-31T01:59:25.207Z,98819.00
2022-10-31T02:01:55.820Z,98821.00
2022-10-31T02:04:29.144Z,98829.00
2022-10-31T02:07:02.305Z,98823.00
2022-10-31T02:09:33.631Z,98818.00
2022-10-31T02:12:06.081Z,98819.00
2022-10-31T02:14:36.288Z,98834.00
2022-10-31T02:17:07.078Z,98824.00
2022-10-31T02:19:54.555Z,98825.00
2022-10-31T02:22:30.652Z,98829.00
2022-10-31T02:25:13.148Z,98821.00
2022-10-31T02:28:10.083Z,98817.00
2022-10-31T02:30:46.313Z,98825.00
2022-10-31T02:33:26.081Z,98825.00
2022-10-31T02:36:02.966Z,98830.00
2022-10-31T02:38:47.291Z,98829.00
2022-10-31T02:41:28.629Z,98827.00
2022-10-31T02:44:10.592Z,98825.00
2022-10-31T02:46:46.369Z,98835.00
2022-10-31T02:49:26.132Z,98837.00
2022-10-31T02:51:56.030Z,98837.00
2022-10-31T02:54:28.044Z,98841.00
2022-10-31T02:57:02.329Z,98839.00
2022-10-31T02:59:33.976Z,98846.00
2022-10-31T03:02:34.704Z,98841.00
2022-10-31T03:05:27.965Z,98841.00
2022-10-31T03:08:03.445Z,98852.00
2022-10-31T03:10:39.999Z,98848.00
2022-10-31T03:13:13.740Z,98845.00
2022-10-31T03:15:47.464Z,98856.00
2022-10-31T03:18:21.360Z,98855.00
2022-10-31T03:20:58.386Z,98850.00
2022-10-31T03:23:29.417Z,98855.00
2022-10-31T03:25:59.382Z,98855.00
2022-10-31T03:28:33.391Z,98854.00
2022-10-31T03:31:06.512Z,98869.00
2022-10-31T03:33:41.273Z,98869.00
2022-10-31T03:36:15.317Z,98871.00
2022-10-31T03:38:48.520Z,98876.00
2022-10-31T03:41:23.332Z,98876.00
2022-10-31T03:43:59.467Z,98876.00
2022-10-31T03:46:29.776Z,98882.00
2022-10-31T03:49:01.917Z,98874.00
2022-10-31T03:51:38.860Z,98881.00
2022-10-31T03:54:13.316Z,98878.00
2022-10-31T03:56:47.477Z,98879.00
2022-10-31T03:59:20.541Z,98869.00
2022-10-31T04:01:54.474Z,98879.00
2022-10-31T04:04:24.659Z,98877.00
2022-10-31T04:06:58.266Z,98897.00
2022-10-31T04:09:29.906Z,98883.00
2022-10-31T04:12:01.080Z,98887.00
2022-10-31T04:14:51.921Z,98879.00
2022-10-31T04:17:23.112Z,98877.00
2022-10-31T04:19:53.404Z,98886.00
2022-10-31T04:22:25.885Z,98897.00
2022-10-31T04:24:56.013Z,98890.00
2022-10-31T04:27:25.930Z,98897.00
2022-10-31T04:29:55.929Z,98896.00
2022-10-31T04:32:25.801Z,98900.00
2022-10-31T04:34:56.593Z,98896.00
2022-10-31T04:37:29.060Z,98902.00
2022-10-31T04:39:59.176Z,98890.00
2022-10-31T04:42:47.612Z,98892.00
2022-10-31T04:45:21.057Z,98897.00
2022-10-31T04:47:54.340Z,98895.00
2022-10-31T04:50:24.212Z,98905.00
2022-10-31T04:52:57.037Z,98899.00
2022-10-31T04:55:30.935Z,98899.00
2022-10-31T04:58:21.295Z,98907.00
2022-10-31T05:00:55.695Z,98898.00
2022-10-31T05:03:25.668Z,98903.00
2022-10-31T05:05:55.658Z,98894.00
2022-10-31T05:08:28.170Z,98896.00
2022-10-31T05:11:03.238Z,98902.00
2022-10-31T05:13:34.597Z,98897.00
2022-10-31T05:16:33.478Z,98904.00
2022-10-31T05:19:23.282Z,98896.00
2022-10-31T05:22:24.706Z,98907.00
2022-10-31T05:24:57.228Z,98910.00
2022-10-31T05:27:27.112Z,98905.00
2022-10-31T05:29:56.989Z,98913.00
2022-10-31T05:32:26.918Z,98912.00
2022-10-31T05:35:18.473Z,98914.00
2022-10-31T05:38:13.600Z,98921.00
2022-10-31T05:40:46.322Z,98919.00
2022-10-31T05:43:16.383Z,98917.00
2022-10-31T05:45:46.280Z,98913.00
2022-10-31T05:48:34.316Z,98919.00
2022-10-31T05:51:30.313Z,98921.00
2022-10-31T05:54:00.312Z,98931.00
2022-10-31T05:56:33.477Z,98927.00
2022-10-31T05:59:03.787Z,98932.00
2022-10-31T06:01:33.779Z,98939.00
2022-10-31T06:04:08.657Z,98937.00
2022-10-31T06:06:40.061Z,98934.00
2022-10-31T06:09:10.699Z,98932.00
2022-10-31T06:11:43.630Z,98935.00
2022-10-31T06:14:36.294Z,98939.00
2022-10-31T06:17:07.017Z,98937.00
2022-10-31T06:20:10.547Z,98942.00
2022-10-31T06:22:52.152Z,98950.00
2022-10-31T06:25:22.091Z,98942.00
2022-10-31T06:27:55.718Z,98947.00
2022-10-31T06:30:29.788Z,98952.00
2022-10-31T06:33:05.753Z,98950.00
2022-10-31T06:35:38.564Z,98950.00
2022-10-31T06:38:08.500Z,98959.00
2022-10-31T06:40:42.722Z,98954.00
2022-10-31T06:43:27.352Z,98955.00
2022-10-31T06:46:16.895Z,98953.00
2022-10-31T06:48:57.447Z,98959.00
2022-10-31T06:51:39.618Z,98968.00
2022-10-31T06:54:09.625Z,98961.00
2022-10-31T06:56:40.414Z,98971.00
2022-10-31T06:59:12.999Z,98972.00
2022-10-31T07:02:03.023Z,98978.00
2022-10-31T07:04:33.028Z,98975.00
2022-10-31T07:07:02.876Z,98981.00
2022-10-31T07:09:36.289Z,98975.00
2022-10-31T07:12:08.112Z,98969.00
2022-10-31T07:14:44.256Z,98981.00
2022-10-31T07:17:14.217Z,98986.00
2022-10-31T07:19:47.052Z,98981.00
2022-10-31T07:22:19.717Z,98983.00
2022-10-31T07:24:49.644Z,98982.00
2022-10-31T07:27:42.815Z,98982.00
2022-10-31T07:30:19.385Z,98991.00
2022-10-31T07:32:51.012Z,98992.00
2022-10-31T07:35:23.978Z,98987.00
2022-10-31T07:38:00.937Z,98986.00
2022-10-31T07:40:31.019Z,98993.00
2022-10-31T07:43:01.872Z,98990.00
2022-10-31T07:46:03.903Z,98995.00
2022-10-31T07:48:52.507Z,98991.00
2022-10-31T07:51:46.358Z,98995.00
2022-10-31T07:54:39.057Z,98995.00
2022-10-31T07:57:12.273Z,99000.00
2022-10-31T07:59:42.521Z,99000.00
2022-10-31T08:02:17.464Z,98997.00
2022-10-31T08:05:05.916Z,98995.00
2022-10-31T08:07:56.267Z,98992.00
2022-10-31T08:10:26.489Z,98995.00
2022-10-31T08:13:02.057Z,98994.00
2022-10-31T08:15:33.060Z,98993.00
2022-10-31T08:18:05.802Z,98989.00
2022-10-31T08:20:36.560Z,98991.00
2022-10-31T08:23:07.733Z,98981.00
2022-10-31T08:25:39.352Z,98992.00
2022-10-31T08:28:10.699Z,98995.00
2022-10-31T08:30:41.709Z,98996.00
2022-10-31T08:33:32.672Z,98993.00
2022-10-31T08:36:21.088Z,98994.00
2022-10-31T08:39:01.576Z,98993.00
2022-10-31T08:41:32.930Z,98991.00
2022-10-31T08:44:04.031Z,98988.00
2022-10-31T08:46:35.554Z,98991.00
2022-10-31T08:49:08.413Z,98989.00
2022-10-31T08:51:38.392Z,98991.00
2022-10-31T08:54:08.519Z,98991.00
2022-10-31T08:57:13.228Z,98985.00
2022-10-31T08:59:46.897Z,98989.00
2022-10-31T09:02:16.802Z,98983.00
2022-10-31T09:04:49.411Z,98977.00
2022-10-31T09:07:21.692Z,98985.00
2022-10-31T09:09:52.127Z,98989.00
2022-10-31T09:12:23.050Z,98992.00
2022-10-31T09:15:22.425Z,98991.00
2022-10-31T09:18:17.475Z,98985.00
2022-10-31T09:20:56.048Z,98987.00
2022-10-31T09:23:26.877Z,98979.00
2022-10-31T09:25:57.607Z,98983.00
2022-10-31T09:28:40.604Z,98981.00
2022-10-31T09:31:14.094Z,98993.00
2022-10-31T09:33:58.095Z,98983.00
2022-10-31T09:36:50.763Z,98990.00
2022-10-31T09:39:27.050Z,98988.00
2022-10-31T09:42:27.805Z,98981.00
2022-10-31T09:45:05.192Z,98986.00
2022-10-31T09:47:49.661Z,98984.00
2022-10-31T09:50:40.831Z,98993.00
2022-10-31T09:53:38.445Z,99002.00
2022-10-31T09:56:10.932Z,98999.00
2022-10-31T09:58:47.477Z,99002.00
2022-10-31T10:01:34.176Z,98987.00
2022-10-31T10:04:09.064Z,98993.00
2022-10-31T10:07:02.773Z,98998.00
2022-10-31T10:09:55.233Z,98998.00
2022-10-31T10:12:54.726Z,98994.00
2022-10-31T10:15:35.170Z,99003.00
2022-10-31T10:18:12.396Z,98993.00
2022-10-31T10:20:48.079Z,99000.00
2022-10-31T10:23:39.319Z,98995.00
2022-10-31T10:26:19.632Z,99006.00
2022-10-31T10:28:52.228Z,98994.00
2022-10-31T10:31:25.737Z,98990.00
2022-10-31T10:34:05.620Z,98993.00
2022-10-31T10:36:40.624Z,98985.00
2022-10-31T10:39:18.371Z,98986.00
2022-10-31T10:42:04.495Z,98997.00
2022-10-31T10:44:46.749Z,98992.00
2022-10-31T10:47:29.057Z,98985.00
2022-10-31T10:49:58.925Z,98990.00
2022-10-31T10:52:50.162Z,98988.00
2022-10-31T10:55:27.172Z,98987.00
2022-10-31T10:58:02.955Z,98988.00
2022-10-31T11:00:35.618Z,98989.00
2022-10-31T11:03:06.651Z,98985.00
2022-10-31T11:05:40.277Z,98989.00
2022-10-31T11:08:10.628Z,98986.00
2022-10-31T11:10:40.686Z,98992.00
2022-10-31T11:13:24.843Z,98980.00
2022-10-31T11:15:59.734Z,98994.00
2022-10-31T11:18:31.514Z,98990.00
2022-10-31T11:21:03.835Z,98992.00
2022-10-31T11:23:34.368Z,98982.00
2022-10-31T11:26:06.022Z,98987.00
2022-10-31T11:28:38.652Z,98982.00
2022-10-31T11:31:11.253Z,98987.00
2022-10-31T11:33:44.264Z,98992.00
2022-10-31T11:36:21.045Z,98986.00
2022-10-31T11:38:51.289Z,98989.00
2022-10-31T11:41:22.925Z,98989.00
2022-10-31T11:57:04.090Z,98984.00
2022-10-31T11:59:35.488Z,98977.00
2022-10-31T12:02:05.723Z,98979.00
2022-10-31T12:04:41.496Z,98975.00
2022-10-31T12:07:11.538Z,98976.00
2022-10-31T12:09:42.115Z,98971.00
2022-10-31T12:12:41.480Z,98985.00
2022-10-31T12:15:24.940Z,98978.00
2022-10-31T12:18:00.821Z,98975.00
2022-10-31T12:20:39.264Z,98977.00
2022-10-31T12:23:16.295Z,98988.00
2022-10-31T12:25:52.274Z,98972.00
2022-10-31T12:28:45.389Z,98977.00
2022-10-31T12:31:27.729Z,98981.00
2022-10-31T12:34:04.627Z,98983.00
2022-10-31T12:36:43.061Z,98982.00
2022-10-31T12:39:27.654Z,98973.00
2022-10-31T12:42:04.158Z,98970.00
2022-10-31T12:44:48.007Z,98982.00
2022-10-31T12:47:51.473Z,98977.00
2022-10-31T12:50:30.670Z,98971.00
2022-10-31T12:53:09.255Z,98963.00
2022-10-31T12:55:52.558Z,98972.00
2022-10-31T12:58:26.504Z,98972.00
2022-10-31T13:01:08.032Z,98968.00
2022-10-31T13:03:43.085Z,98968.00
2022-10-31T13:06:19.020Z,98964.00
2022-10-31T13:08:51.765Z,98969.00
2022-10-31T13:11:26.251Z,98968.00
2022-10-31T13:14:03.010Z,98966.00
2022-10-31T13:16:39.186Z,98972.00
2022-10-31T13:19:14.706Z,98973.00
2022-10-31T13:21:49.713Z,98968.00
2022-10-31T13:24:24.087Z,98971.00
2022-10-31T13:26:56.492Z,98968.00
2022-10-31T13:29:31.814Z,98963.00
2022-10-31T13:32:08.409Z,98962.00
2022-10-31T13:34:41.823Z,98963.00
2022-10-31T13:37:20.181Z,98964.00
2022-10-31T13:40:02.512Z,98959.00
2022-10-31T13:42:44.724Z,98965.00
2022-10-31T13:45:20.720Z,98955.00
2022-10-31T13:48:03.516Z,98963.00
2022-10-31T13:50:35.250Z,98957.00
2022-10-31T13:53:15.647Z,98942.00
2022-10-31T13:55:46.867Z,98955.00
2022-10-31T13:58:28.219Z,98956.00
2022-10-31T14:01:16.075Z,98951.00
2022-10-31T14:04:07.722Z,98951.00
2022-10-31T14:06:42.802Z,98949.00
2022-10-31T14:09:23.807Z,98949.00
2022-10-31T14:11:54.568Z,98944.00
2022-10-31T14:14:25.179Z,98949.00
2022-10-31T14:16:59.179Z,98959.00
2022-10-31T14:19:31.691Z,98956.00
2022-10-31T14:22:01.728Z,98954.00
2022-10-31T14:24:37.798Z,98941.00
2022-10-31T14:27:38.950Z,98942.00
2022-10-31T14:30:23.544Z,98956.00
2022-10-31T14:32:55.848Z,98944.00
2022-10-31T14:35:31.802Z,98942.00
2022-10-31T14:38:27.895Z,98940.00
2022-10-31T14:41:20.155Z,98934.00
2022-10-31T14:44:21.238Z,98943.00
2022-10-31T14:46:56.670Z,98943.00
2022-10-31T14:49:39.148Z,98939.00
2022-10-31T14:52:16.629Z,98926.00
2022-10-31T14:54:49.902Z,98923.00
2022-10-31T14:57:23.522Z,98928.00
2022-10-31T14:59:57.937Z,98916.00
2022-10-31T15:02:35.856Z,98915.00
2022-10-31T15:05:07.936Z,98912.00
2022-10-31T15:07:41.405Z,98911.00
2022-10-31T15:10:26.936Z,98911.00
2022-10-31T15:12:57.675Z,98917.00
2022-10-31T15:15:29.265Z,98918.00
2022-10-31T15:18:02.839Z,98922.00
2022-10-31T15:20:34.675Z,98918.00
2022-10-31T15:23:07.128Z,98918.00
2022-10-31T15:25:38.758Z,98923.00
2022-10-31T15:28:17.679Z,98921.00
2022-10-31T15:30:54.633Z,98920.00
2022-10-31T15:33:33.675Z,98917.00
2022-10-31T15:36:08.247Z,98919.00
2022-10-31T15:38:40.765Z,98918.00
2022-10-31T15:41:25.894Z,98912.00
2022-10-31T15:43:55.858Z,98916.00
2022-10-31T15:46:28.315Z,98913.00
2022-10-31T15:48:58.721Z,98915.00
2022-10-31T15:51:36.323Z,98922.00
2022-10-31T15:54:08.987Z,98923.00
2022-10-31T15:56:39.200Z,98917.00
2022-10-31T15:59:09.052Z,98924.00
2022-10-31T16:01:39.014Z,98920.00
2022-10-31T16:04:25.567Z,98923.00
2022-10-31T16:07:04.435Z,98927.00
2022-10-31T16:09:37.116Z,98933.00
2022-10-31T16:12:07.443Z,98928.00
2022-10-31T16:14:42.544Z,98926.00
2022-10-31T16:17:15.789Z,98924.00
2022-10-31T16:19:53.085Z,98928.00
2022-10-31T16:22:29.308Z,98932.00
2022-10-31T16:25:07.261Z,98922.00
2022-10-31T16:27:38.939Z,98923.00
2022-10-31T16:30:33.634Z,98926.00
2022-10-31T16:33:04.988Z,98927.00
2022-10-31T16:35:37.245Z,98926.00
2022-10-31T16:38:07.663Z,98930.00
2022-10-31T16:40:42.333Z,98925.00
2022-10-31T16:43:15.214Z,98933.00
2022-10-31T16:45:47.801Z,98933.00
2022-10-31T16:48:20.496Z,98930.00
2022-10-31T16:50:50.764Z,98938.00
2022-10-31T16:53:20.987Z,98926.00
2022-10-31T16:55:58.022Z,98931.00
2022-10-31T16:58:33.108Z,98931.00
2022-10-31T17:01:03.331Z,98932.00
2022-10-31T17:03:33.291Z,98927.00
2022-10-31T17:06:03.269Z,98929.00
2022-10-31T17:08:34.196Z,98933.00
2022-10-31T17:11:07.370Z,98930.00
2022-10-31T17:13:37.794Z,98926.00
2022-10-31T17:16:08.757Z,98931.00
2022-10-31T17:18:38.610Z,98923.00
2022-10-31T17:21:09.040Z,98928.00
2022-10-31T17:23:38.913Z,98925.00
2022-10-31T17:26:11.563Z,98922.00
2022-10-31T17:28:41.418Z,98921.00
2022-10-31T17:31:20.217Z,98921.00
2022-10-31T17:33:50.138Z,98919.00
2022-10-31T17:36:20.034Z,98918.00
2022-10-31T17:38:49.893Z,98913.00
2022-10-31T17:41:22.311Z,98917.00
2022-10-31T17:43:52.179Z,98912.00
2022-10-31T17:46:22.028Z,98913.00
2022-10-31T17:48:51.911Z,98911.00
2022-10-31T17:51:21.741Z,98900.00
2022-10-31T17:53:51.609Z,98898.00
2022-10-31T17:56:24.144Z,98901.00
2022-10-31T17:58:54.049Z,98902.00
2022-10-31T18:01:24.535Z,98896.00
2022-10-31T18:03:54.540Z,98900.00
2022-10-31T18:06:24.524Z,98900.00
2022-10-31T18:08:56.232Z,98904.00
2022-10-31T18:11:28.657Z,98904.00
2022-10-31T18:14:00.977Z,98901.00
2022-10-31T18:16:30.897Z,98903.00
2022-10-31T18:19:01.961Z,98902.00
2022-10-31T18:21:32.467Z,98900.00
2022-10-31T18:24:03.343Z,98900.00
2022-10-31T18:26:35.799Z,98894.00
2022-10-31T18:29:06.090Z,98890.00
2022-10-31T18:31:35.924Z,98887.00
2022-10-31T18:34:05.768Z,98880.00
2022-10-31T18:36:35.723Z,98879.00
2022-10-31T18:39:06.704Z,98878.00
2022-10-31T18:41:39.145Z,98888.00
2022-10-31T18:44:10.024Z,98883.00
2022-10-31T18:46:40.468Z,98885.00
2022-10-31T18:49:10.291Z,98875.00
2022-10-31T18:51:40.169Z,98871.00
2022-10-31T18:54:10.984Z,98872.00
2022-10-31T18:56:43.515Z,98880.00
2022-10-31T18:59:14.664Z,98873.00
2022-10-31T19:01:44.622Z,98876.00
2022-10-31T19:04:14.674Z,98863.00
2022-10-31T19:06:44.563Z,98870.00
2022-10-31T19:09:14.455Z,98863.00
2022-10-31T19:11:46.906Z,98870.00
2022-10-31T19:14:16.910Z,98863.00
2022-10-31T19:16:46.815Z,98866.00
2022-10-31T19:19:16.646Z,98851.00
2022-10-31T19:21:46.481Z,98857.00
2022-10-31T19:24:16.529Z,98855.00
2022-10-31T19:26:49.135Z,98856.00
2022-10-31T19:29:19.327Z,98851.00
2022-10-31T19:31:49.161Z,98847.00
2022-10-31T19:34:19.040Z,98845.00
2022-10-31T19:36:48.880Z,98842.00
2022-10-31T19:39:18.721Z,98836.00
2022-10-31T19:41:51.178Z,98836.00
2022-10-31T19:44:21.031Z,98833.00
2022-10-31T19:46:54.357Z,98829.00
2022-10-31T19:49:24.329Z,98831.00
2022-10-31T19:51:54.442Z,98829.00
2022-10-31T19:54:24.350Z,98822.00
2022-10-31T19:56:56.874Z,98828.00
2022-10-31T19:59:26.766Z,98819.00
2022-10-31T20:01:56.740Z,98826.00
2022-10-31T20:04:26.805Z,98829.00
2022-10-31T20:06:56.647Z,98832.00
2022-10-31T20:09:26.503Z,98834.00
2022-10-31T20:11:58.920Z,98820.00
2022-10-31T20:14:28.793Z,98828.00
2022-10-31T20:16:58.639Z,98821.00
2022-10-31T20:19:28.481Z,98826.00
2022-10-31T20:21:58.493Z,98822.00
2022-10-31T20:24:28.384Z,98807.00
2022-10-31T20:27:00.812Z,98810.00
2022-10-31T20:29:30.674Z,98808.00
2022-10-31T20:32:00.569Z,98809.00
2022-10-31T20:34:30.485Z,98803.00
2022-10-31T20:37:00.324Z,98806.00
2022-10-31T20:39:30.158Z,98807.00
2022-10-31T20:42:02.569Z,98802.00
2022-10-31T20:44:32.424Z,98798.00
2022-10-31T20:47:02.277Z,98809.00
2022-10-31T20:49:33.204Z,98796.00
2022-10-31T20:52:03.093Z,98787.00
2022-10-31T20:54:32.956Z,98793.00
2022-10-31T20:57:05.394Z,98793.00
2022-10-31T20:59:35.325Z,98782.00
2022-10-31T21:02:05.365Z,98792.00
2022-10-31T21:04:35.300Z,98779.00
2022-10-31T21:07:05.154Z,98779.00
2022-10-31T21:09:34.997Z,98772.00
2022-10-31T21:12:07.520Z,98764.00
2022-10-31T21:14:37.936Z,98763.00
2022-10-31T21:17:08.112Z,98767.00
2022-10-31T21:19:37.976Z,98760.00
2022-10-31T21:22:07.817Z,98756.00
2022-10-31T21:24:37.741Z,98761.00
2022-10-31T21:27:12.584Z,98762.00
2022-10-31T21:29:42.565Z,98763.00
2022-10-31T21:32:12.428Z,98768.00
2022-10-31T21:34:42.256Z,98760.00
2022-10-31T21:37:12.089Z,98755.00
2022-10-31T21:39:45.618Z,98753.00
2022-10-31T21:42:21.728Z,98750.00
2022-10-31T21:44:51.816Z,98747.00
2022-10-31T21:47:21.644Z,98744.00
2022-10-31T21:49:51.537Z,98735.00
2022-10-31T21:52:21.906Z,98747.00
2022-10-31T21:54:49.166Z,98739.00
2022-10-31T21:59:52.448Z,98740.00
2022-10-31T22:02:22.331Z,98747.00
2022-10-31T22:04:52.666Z,98744.00
2022-10-31T22:07:22.517Z,98741.00
2022-10-31T22:09:52.363Z,98734.00
2022-10-31T22:12:24.873Z,98723.00
2022-10-31T22:14:54.718Z,98720.00
2022-10-31T22:17:24.552Z,98722.00
2022-10-31T22:19:54.563Z,98716.00
2022-10-31T22:22:24.412Z,98707.00
2022-10-31T22:24:54.275Z,98702.00
2022-10-31T22:27:26.716Z,98699.00
2022-10-31T22:29:56.917Z,98685.00
2022-10-31T22:32:27.371Z,98697.00
2022-10-31T22:34:57.262Z,98696.00
2022-10-31T22:37:27.149Z,98680.00
2022-10-31T22:39:56.987Z,98682.00
2022-10-31T22:42:29.469Z,98675.00
2022-10-31T22:45:01.754Z,98684.00
2022-10-31T22:47:31.713Z,98686.00
2022-10-31T22:50:01.576Z,98680.00
2022-10-31T22:52:31.459Z,98679.00
2022-10-31T22:55:01.281Z,98683.00
2022-10-31T22:57:33.730Z,98673.00
2022-10-31T23:00:03.611Z,98660.00
2022-10-31T23:02:33.483Z,98663.00
2022-10-31T23:05:03.429Z,98658.00
2022-10-31T23:07:33.323Z,98656.00
2022-10-31T23:10:03.170Z,98649.00
2022-10-31T23:12:48.053Z,98647.00
2022-10-31T23:15:18.105Z,98653.00
2022-10-31T23:17:47.975Z,98634.00
2022-10-31T23:20:17.837Z,98629.00
2022-10-31T23:22:47.696Z,98625.00
2022-10-31T23:25:29.947Z,98633.00
2022-10-31T23:28:02.364Z,98630.00
2022-10-31T23:30:32.227Z,98627.00
2022-10-31T23:33:02.375Z,98629.00
2022-10-31T23:35:32.457Z,98626.00
2022-10-31T23:38:02.446Z,98627.00
2022-10-31T23:40:32.492Z,98631.00
2022-10-31T23:43:04.940Z,98631.00
2022-10-31T23:45:34.825Z,98628.00
2022-10-31T23:48:04.758Z,98621.00
2022-10-31T23:50:34.636Z,98617.00
2022-10-31T23:53:04.472Z,98625.00
2022-10-31T23:55:34.948Z,98629.00
2022-10-31T23:58:07.383Z,98612.00
